Time;durP1;ratioP1;P1;durP2;ratioP2;P2;SDS_P1;SDS_P2;PMS_P1;PMS_P2;Temp;Humidity;BMP_temperature;BMP_pressure;BME280_temperature;BME280_humidity;BME280_pressure;Samples;Min_cycle;Max_cycle;Signal;HPM_P1;HPM_P2
2022/12/21 00:09:15;;;;;;;112.88;22.70;;;;;;;21.65;31.23;102923.63;20820143;28;20476;-64
2022/12/21 00:19:16;;;;;;;103.20;21.70;;;;;;;21.77;31.35;102963.53;20827563;28;20512;-64
2022/12/21 00:29:18;;;;;;;107.75;22.08;;;;;;;21.82;31.16;102972.03;20797705;28;20379;-63
2022/12/21 00:39:19;;;;;;;120.53;19.73;;;;;;;21.85;31.41;102961.47;20826020;28;20064;-62
2022/12/21 00:49:21;;;;;;;82.05;17.35;;;;;;;21.81;32.01;102977.84;20791749;28;20451;-63
2022/12/21 00:59:22;;;;;;;80.80;16.30;;;;;;;21.78;32.24;102968.03;20804306;28;20048;-64
2022/12/21 01:09:27;;;;;;;72.05;14.52;;;;;;;21.69;32.59;102969.44;20863273;28;20042;-63
2022/12/21 01:19:28;;;;;;;56.60;13.93;;;;;;;21.71;32.60;102972.84;20794631;28;20068;-64
2022/12/21 01:29:30;;;;;;;51.42;11.70;;;;;;;21.71;32.67;102992.34;20813255;28;20393;-64
2022/12/21 01:39:31;;;;;;;36.85;10.15;;;;;;;21.63;32.61;102967.63;20792479;28;20388;-64
2022/12/21 01:49:33;;;;;;;34.85;10.23;;;;;;;21.70;32.57;102992.59;20827581;28;20049;-64
2022/12/21 01:59:38;;;;;;;28.98;9.45;;;;;;;21.71;32.41;102983.13;20824527;28;20056;-64
2022/12/21 02:09:40;;;;;;;30.95;9.00;;;;;;;21.75;32.73;102989.94;20811164;28;20037;-63
2022/12/21 02:20:23;;;;;;;34.15;7.95;;;;;;;21.78;32.53;102989.47;20834150;28;20057;-64
2022/12/21 02:30:48;;;;;;;20.95;7.53;;;;;;;21.89;32.21;102997.00;20798532;28;20154;-63
2022/12/21 02:40:55;;;;;;;26.23;7.22;;;;;;;21.95;31.55;103007.22;20834298;28;20481;-64
2022/12/21 02:51:01;;;;;;;28.17;7.45;;;;;;;21.95;31.71;103000.78;20833095;28;20448;-64
2022/12/21 03:01:26;;;;;;;18.95;6.00;;;;;;;22.14;31.80;103010.81;20833391;28;20041;-65
2022/12/21 03:11:44;;;;;;;16.65;5.80;;;;;;;22.29;31.32;103019.56;20832340;28;20033;-64
2022/12/21 03:21:52;;;;;;;17.33;5.88;;;;;;;22.37;31.36;103014.72;20825446;28;20164;-64
2022/12/21 03:32:02;;;;;;;14.48;5.53;;;;;;;22.36;31.30;103018.56;20828188;28;20550;-64
2022/12/21 03:42:13;;;;;;;14.77;4.97;;;;;;;22.40;31.09;103025.38;20817552;28;20041;-64
2022/12/21 03:52:18;;;;;;;18.83;5.68;;;;;;;22.45;32.99;103012.44;20796954;28;20366;-66
2022/12/21 04:02:33;;;;;;;14.63;4.40;;;;;;;22.58;32.34;103028.91;20823279;28;20493;-64
2022/12/21 04:12:41;;;;;;;13.93;5.03;;;;;;;22.48;32.16;103011.09;20827549;28;20476;-65
2022/12/21 04:33:06;;;;;;;14.65;3.40;;;;;;;22.56;31.51;103019.09;20816500;28;20042;-66
2022/12/21 04:43:07;;;;;;;10.55;3.20;;;;;;;22.51;31.80;103013.41;20825594;28;20509;-66
2022/12/21 04:53:09;;;;;;;8.82;3.15;;;;;;;22.50;31.62;103006.13;20762816;28;20485;-66
2022/12/21 05:03:10;;;;;;;10.95;2.97;;;;;;;22.28;31.53;102973.22;20814869;28;20061;-66
2022/12/21 05:13:11;;;;;;;5.95;3.05;;;;;;;22.43;31.62;103013.75;20826915;28;20050;-66
2022/12/21 05:23:14;;;;;;;8.07;2.60;;;;;;;22.42;31.06;103012.06;20777206;28;20103;-65
2022/12/21 05:33:18;;;;;;;5.50;2.30;;;;;;;22.36;31.12;103001.84;20842094;28;20048;-65
2022/12/21 05:43:22;;;;;;;5.65;2.40;;;;;;;22.34;31.24;103007.66;20841095;28;20034;-66
2022/12/21 05:53:26;;;;;;;3.78;2.05;;;;;;;22.32;31.23;103018.22;20839868;28;20099;-65
2022/12/21 06:03:27;;;;;;;4.57;2.50;;;;;;;22.28;31.15;103017.84;20840739;28;20042;-64
2022/12/21 06:13:32;;;;;;;5.38;2.38;;;;;;;22.19;30.88;103005.34;20840619;28;20033;-66
2022/12/21 06:23:34;;;;;;;4.15;2.17;;;;;;;22.32;30.47;103026.59;20802834;28;20044;-66
2022/12/21 06:33:36;;;;;;;4.60;1.70;;;;;;;22.25;30.57;103034.22;20843431;28;20071;-66
2022/12/21 06:43:40;;;;;;;4.40;2.20;;;;;;;22.29;30.74;103030.72;20838569;28;20045;-66
2022/12/21 06:53:44;;;;;;;4.25;1.98;;;;;;;22.29;30.25;103050.22;20828601;28;20093;-66
2022/12/21 07:03:46;;;;;;;3.45;2.20;;;;;;;22.29;30.37;103053.03;20831687;28;20045;-66
2022/12/21 07:13:49;;;;;;;3.03;1.90;;;;;;;22.31;30.31;103048.06;20825774;28;20575;-66
2022/12/21 07:23:54;;;;;;;3.88;1.80;;;;;;;22.29;30.25;103069.75;20825244;28;20049;-66
2022/12/21 07:34:00;;;;;;;2.13;1.80;;;;;;;22.25;30.14;103071.31;20819679;28;20076;-66
2022/12/21 07:44:02;;;;;;;3.92;2.10;;;;;;;22.25;30.39;103067.69;20827383;28;20045;-66
2022/12/21 07:54:03;;;;;;;2.72;1.83;;;;;;;22.22;30.26;103074.59;20831886;28;20049;-65
2022/12/21 08:04:07;;;;;;;3.38;2.03;;;;;;;22.08;30.35;103073.06;20822910;28;20072;-66
2022/12/21 08:14:08;;;;;;;4.80;2.08;;;;;;;22.15;30.80;103085.00;20786360;28;20112;-66
2022/12/21 08:24:10;;;;;;;3.13;1.80;;;;;;;22.11;30.86;103075.38;20818910;28;20562;-65
2022/12/21 08:34:12;;;;;;;2.72;1.90;;;;;;;22.08;30.64;103079.50;20825326;28;20543;-66
2022/12/21 08:44:13;;;;;;;4.25;1.90;;;;;;;22.02;30.93;103085.16;20826075;28;20049;-66
2022/12/21 08:54:17;;;;;;;2.88;1.80;;;;;;;21.96;31.00;103081.38;20824655;28;20037;-66
2022/12/21 09:04:19;;;;;;;2.35;1.60;;;;;;;22.00;31.06;103095.72;20824288;28;20045;-65
2022/12/21 09:14:21;;;;;;;3.03;2.00;;;;;;;21.99;30.70;103078.13;20824024;28;20037;-66
2022/12/21 09:24:22;;;;;;;2.05;1.67;;;;;;;22.01;30.54;103083.47;20824587;28;20077;-66
2022/12/21 09:34:23;;;;;;;2.42;1.45;;;;;;;21.98;30.32;103078.34;20819378;28;20076;-65
2022/12/21 09:45:02;;;;;;;1.88;1.58;;;;;;;21.90;30.88;103081.47;20762666;28;20045;-66
2022/12/21 09:55:22;;;;;;;2.13;1.50;;;;;;;21.81;30.80;103064.25;20825329;28;20412;-66
2022/12/21 10:05:49;;;;;;;2.70;1.77;;;;;;;22.02;30.17;103085.16;20792691;28;20099;-65
2022/12/21 10:16:00;;;;;;;1.90;1.67;;;;;;;22.04;30.26;103085.78;20836395;28;20111;-65
2022/12/21 10:26:05;;;;;;;2.28;1.92;;;;;;;22.06;30.32;103091.97;20838818;28;20037;-66
2022/12/21 10:36:17;;;;;;;2.97;1.88;;;;;;;22.00;30.25;103098.50;20837046;28;20061;-67
2022/12/21 10:46:20;;;;;;;3.55;1.60;;;;;;;22.03;30.06;103121.16;20836793;28;20041;-65
2022/12/21 10:56:22;;;;;;;2.28;1.70;;;;;;;22.06;29.89;103131.00;20831711;28;20401;-66
2022/12/21 11:06:24;;;;;;;2.78;1.60;;;;;;;22.04;29.77;103144.34;20831822;28;20064;-65
2022/12/21 11:16:29;;;;;;;3.50;1.63;;;;;;;22.02;29.86;103152.06;20829070;28;20053;-65
2022/12/21 11:26:38;;;;;;;2.20;1.42;;;;;;;22.00;29.99;103148.69;20827306;28;20095;-66
2022/12/21 11:36:57;;;;;;;2.38;1.75;;;;;;;21.87;30.41;103155.28;20824933;28;20084;-67
2022/12/21 11:47:15;;;;;;;3.20;2.23;;;;;;;21.78;30.17;103143.59;20788041;28;20033;-66
2022/12/21 11:57:41;;;;;;;85.90;6.83;;;;;;;21.82;30.72;103175.50;20824919;28;20049;-63
2022/12/21 12:08:09;;;;;;;14.18;2.28;;;;;;;21.85;30.12;103173.31;20830220;28;20063;-63
2022/12/21 12:18:50;;;;;;;9.85;2.20;;;;;;;21.77;30.15;103192.06;20830060;28;20107;-63
2022/12/21 12:29:08;;;;;;;4.75;1.70;;;;;;;21.80;29.80;103182.38;20828714;28;20045;-63
2022/12/21 12:39:32;;;;;;;5.05;1.77;;;;;;;21.78;30.38;103190.13;20828187;28;20041;-63
2022/12/21 12:49:58;;;;;;;3.05;1.70;;;;;;;21.81;30.41;103173.78;20828710;28;20562;-62
2022/12/21 13:00:09;;;;;;;4.45;1.70;;;;;;;21.48;30.19;103123.16;20827360;28;20073;-62
2022/12/21 13:10:43;;;;;;;3.78;1.67;;;;;;;21.90;30.08;103190.19;20826679;28;20064;-62
2022/12/21 13:20:48;;;;;;;2.95;1.55;;;;;;;21.95;29.88;103190.34;20826469;28;20030;-62
2022/12/21 13:30:53;;;;;;;3.60;2.15;;;;;;;21.95;29.82;103195.94;20826543;28;20037;-62
2022/12/21 13:41:01;;;;;;;2.13;1.50;;;;;;;22.00;29.81;103207.22;20826699;28;20099;-63
2022/12/21 13:51:08;;;;;;;4.40;1.90;;;;;;;;;;20841233;28;20072;-63
2022/12/21 14:01:12;;;;;;;4.07;1.70;;;;;;;22.04;29.95;103223.25;20840826;28;20049;-63
2022/12/21 14:11:32;;;;;;;2.22;1.55;;;;;;;22.07;29.48;103227.50;20839900;28;20080;-62
2022/12/21 14:21:34;;;;;;;2.70;1.60;;;;;;;22.03;29.67;103249.41;20839063;28;20072;-62
2022/12/21 14:31:36;;;;;;;2.13;1.73;;;;;;;22.06;29.40;103242.53;20838482;28;20045;-63
2022/12/21 14:41:39;;;;;;;2.15;1.35;;;;;;;22.04;29.61;103239.97;20838107;28;20427;-63
2022/12/21 14:51:54;;;;;;;2.63;1.60;;;;;;;22.00;29.94;103249.06;20837928;28;20033;-63
2022/12/21 15:02:01;;;;;;;4.15;1.70;;;;;;;21.96;29.60;103245.88;20836047;28;20396;-63
2022/12/21 15:12:17;;;;;;;2.60;1.60;;;;;;;21.96;29.99;103254.22;20835209;28;20045;-62
2022/12/21 15:22:18;;;;;;;2.72;1.88;;;;;;;21.99;29.80;103253.78;20833963;28;20402;-62
2022/12/21 15:32:35;;;;;;;2.03;1.50;;;;;;;21.93;30.09;103249.09;20833995;28;20397;-63
2022/12/21 15:43:00;;;;;;;2.17;1.30;;;;;;;21.89;29.98;103230.28;20835442;28;20112;-62
2022/12/21 15:53:07;;;;;;;3.88;1.70;;;;;;;22.05;29.96;103235.25;20838234;28;20037;-63
2022/12/21 16:03:13;;;;;;;3.03;1.65;;;;;;;22.05;29.57;103216.59;20832170;28;20123;-63
2022/12/21 16:13:26;;;;;;;1.90;1.42;;;;;;;22.10;29.60;103201.94;20829699;28;20041;-62
2022/12/21 16:23:44;;;;;;;2.25;1.77;;;;;;;22.11;29.66;103184.13;20830340;28;20400;-63
2022/12/21 16:33:59;;;;;;;2.20;1.50;;;;;;;22.14;29.72;103164.16;20829911;28;20050;-63
2022/12/21 16:44:00;;;;;;;2.30;1.50;;;;;;;22.18;29.60;103168.19;20829944;28;20045;-65
2022/12/21 16:54:02;;;;;;;6.05;1.80;;;;;;;22.18;29.66;103145.88;20825600;28;20489;-63
2022/12/21 17:04:06;;;;;;;7.38;2.03;;;;;;;22.23;29.15;103140.44;20826840;28;20187;-62
2022/12/21 17:14:16;;;;;;;15.77;3.00;;;;;;;22.12;29.73;103112.50;20826827;28;20038;-62
2022/12/21 17:24:29;;;;;;;10.07;2.13;;;;;;;22.24;29.68;103130.97;20842136;28;20042;-62
2022/12/21 17:34:31;;;;;;;5.03;2.00;;;;;;;22.15;29.47;103106.47;20843217;28;20073;-62
2022/12/21 17:44:32;;;;;;;14.23;2.70;;;;;;;22.19;29.63;103102.97;20841378;28;20104;-62
2022/12/21 17:54:36;;;;;;;9.05;2.10;;;;;;;22.07;29.61;103099.25;20840997;28;20045;-62
2022/12/21 18:04:38;;;;;;;6.22;2.05;;;;;;;22.12;29.69;103092.97;20839365;28;20045;-62
2022/12/21 18:14:42;;;;;;;24.25;3.40;;;;;;;22.19;29.78;103108.53;20838860;28;20091;-63
2022/12/21 18:24:44;;;;;;;43.40;5.53;;;;;;;22.13;29.95;103067.66;20838169;28;20042;-63
2022/12/21 18:34:47;;;;;;;73.72;6.25;;;;;;;22.19;30.41;103079.81;20836611;28;20037;-63
2022/12/21 18:44:48;;;;;;;47.53;5.95;;;;;;;22.18;30.38;103064.16;20835690;28;20049;-63
2022/12/21 18:54:50;;;;;;;40.65;5.45;;;;;;;22.23;30.35;103062.34;20835162;28;20038;-63
2022/12/21 19:04:54;;;;;;;29.58;4.90;;;;;;;22.25;30.47;103056.53;20834469;28;20030;-62
2022/12/21 19:14:56;;;;;;;41.10;5.43;;;;;;;22.14;30.26;103049.84;20834478;28;20041;-62
2022/12/21 19:25:01;;;;;;;33.42;4.63;;;;;;;22.36;30.17;103091.09;20833282;28;20107;-62
2022/12/21 19:35:03;;;;;;;34.10;5.25;;;;;;;22.39;30.51;103066.38;20833130;28;20037;-62
2022/12/21 19:45:14;;;;;;;47.03;6.38;;;;;;;22.27;30.73;103059.94;20830212;28;20041;-62
2022/12/21 19:55:18;;;;;;;34.42;6.20;;;;;;;22.41;30.63;103063.38;20830938;28;20045;-61
2022/12/21 20:05:21;;;;;;;35.60;5.43;;;;;;;22.46;30.48;103052.34;20829953;28;20080;-62
2022/12/21 20:15:29;;;;;;;36.03;6.40;;;;;;;22.48;30.56;103055.72;20830916;28;20465;-62
2022/12/21 20:25:32;;;;;;;44.70;5.68;;;;;;;22.48;30.61;103066.88;20822136;28;20041;-63
2022/12/21 20:35:35;;;;;;;63.47;7.85;;;;;;;22.50;30.64;103079.50;20813477;28;20049;-64
2022/12/21 20:45:40;;;;;;;71.70;7.88;;;;;;;22.53;30.63;103078.16;20827673;28;20063;-63
2022/12/21 21:06:10;;;;;;;42.13;6.53;;;;;;;22.50;30.86;103078.66;20821357;28;20034;-63
2022/12/21 21:16:12;;;;;;;59.60;7.40;;;;;;;22.51;31.20;103072.00;20824359;28;20042;-63
2022/12/21 21:26:17;;;;;;;96.30;8.43;;;;;;;22.45;31.49;103062.66;20807301;28;20045;-63
2022/12/21 21:36:20;;;;;;;82.30;9.68;;;;;;;22.50;31.87;103087.03;20744605;28;20470;-63
2022/12/21 21:46:22;;;;;;;67.72;8.63;;;;;;;22.48;31.91;103090.03;20744602;28;20045;-63
2022/12/21 21:56:38;;;;;;;74.78;8.68;;;;;;;22.43;32.20;103091.84;20760120;28;20041;-63
2022/12/21 22:06:39;;;;;;;62.70;8.25;;;;;;;22.47;31.91;103101.47;20829420;28;20029;-63
2022/12/21 22:16:40;;;;;;;84.22;8.63;;;;;;;22.43;31.80;103091.84;20838989;28;20049;-63
2022/12/21 22:47:27;;;;;;;79.13;9.50;;;;;;;22.43;31.12;103069.53;20837316;28;20029;-64
2022/12/21 22:57:34;;;;;;;51.45;7.22;;;;;;;22.42;31.12;103048.31;20835833;28;20040;-64
2022/12/21 23:07:36;;;;;;;61.83;8.38;;;;;;;22.39;31.07;103040.41;20835065;28;20114;-63
2022/12/21 23:28:11;;;;;;;256.88;23.88;;;;;;;22.33;31.53;103029.16;20800032;28;20392;-62
